Time;durP1;ratioP1;P1;durP2;ratioP2;P2;SDS_P1;SDS_P2;PMS_P1;PMS_P2;Temp;Humidity;BMP_temperature;BMP_pressure;BME280_temperature;BME280_humidity;BME280_pressure;Samples;Min_cycle;Max_cycle;Signal;HPM_P1;HPM_P2
2023/07/10 00:02:17;;;;;;;6.55;3.72;;;22.60;61.10;;;;;;5004747;28;20041;-63
2023/07/10 00:04:42;;;;;;;6.97;3.70;;;22.60;61.00;;;;;;5004555;28;20041;-64
2023/07/10 00:07:08;;;;;;;6.28;3.60;;;22.50;61.20;;;;;;5004589;28;20354;-64
2023/07/10 00:09:33;;;;;;;6.22;3.22;;;22.50;61.50;;;;;;5002859;28;20254;-63
2023/07/10 00:11:59;;;;;;;6.05;3.45;;;22.40;61.70;;;;;;5003232;28;20564;-63
2023/07/10 00:14:25;;;;;;;5.40;3.58;;;22.40;61.90;;;;;;5000844;28;20041;-63
2023/07/10 00:16:52;;;;;;;4.18;3.05;;;22.40;62.00;;;;;;5002760;28;20042;-63
2023/07/10 00:19:18;;;;;;;4.72;3.25;;;22.40;62.40;;;;;;5002754;28;20038;-63
2023/07/10 00:21:45;;;;;;;5.45;3.42;;;22.40;62.40;;;;;;5003070;28;20544;-63
2023/07/10 00:24:11;;;;;;;4.93;3.80;;;22.40;62.70;;;;;;5001726;28;20429;-63
2023/07/10 00:26:37;;;;;;;5.80;3.53;;;22.40;62.80;;;;;;5002221;28;20041;-61
2023/07/10 00:29:16;;;;;;;6.00;3.40;;;22.40;62.80;;;;;;5000779;28;20037;-64
2023/07/10 00:31:42;;;;;;;4.00;3.47;;;22.40;63.60;;;;;;4999929;28;20042;-63
2023/07/10 00:34:13;;;;;;;6.30;3.70;;;22.40;62.70;;;;;;5006096;28;20061;-64
2023/07/10 00:36:40;;;;;;;7.38;3.75;;;22.40;63.30;;;;;;5006230;28;20558;-63
2023/07/10 00:39:25;;;;;;;5.55;3.80;;;22.40;62.80;;;;;;5004902;28;20042;-63
2023/07/10 00:42:00;;;;;;;5.22;3.72;;;22.30;63.80;;;;;;5005598;28;20048;-63
2023/07/10 00:44:40;;;;;;;6.38;3.60;;;22.30;63.40;;;;;;5002234;28;20285;-64
2023/07/10 00:47:19;;;;;;;7.95;3.72;;;22.30;63.80;;;;;;5005612;28;20046;-63
2023/07/10 00:50:10;;;;;;;5.53;3.65;;;22.20;63.60;;;;;;5002371;28;20486;-63
2023/07/10 00:52:39;;;;;;;4.40;3.33;;;22.20;63.50;;;;;;5004972;28;20521;-63
2023/07/10 00:55:33;;;;;;;7.25;4.25;;;22.20;62.90;;;;;;5004805;28;20049;-63
2023/07/10 00:58:21;;;;;;;5.53;3.85;;;22.10;63.90;;;;;;5004094;28;20061;-64
2023/07/10 01:01:05;;;;;;;7.53;4.07;;;22.10;63.90;;;;;;5002212;28;20042;-63
2023/07/10 01:03:32;;;;;;;9.07;3.83;;;22.10;64.10;;;;;;5004218;28;20104;-64
2023/07/10 01:06:03;;;;;;;5.38;4.05;;;22.10;63.20;;;;;;5007262;28;20109;-64
2023/07/10 01:08:29;;;;;;;5.80;3.95;;;22.10;63.30;;;;;;5006348;28;20046;-64
2023/07/10 01:10:55;;;;;;;6.65;4.28;;;22.00;63.20;;;;;;5001722;28;20683;-65
2023/07/10 01:13:21;;;;;;;7.93;4.40;;;22.00;63.40;;;;;;5007014;28;20046;-63
2023/07/10 01:15:48;;;;;;;6.70;4.35;;;21.90;63.10;;;;;;5004885;28;20421;-64
2023/07/10 01:18:15;;;;;;;6.55;4.40;;;21.90;63.30;;;;;;5004328;28;20034;-63
2023/07/10 01:20:48;;;;;;;5.38;4.10;;;21.90;63.40;;;;;;5005053;28;20041;-63
2023/07/10 01:23:16;;;;;;;5.43;3.60;;;21.80;64.40;;;;;;5007843;28;20038;-64
2023/07/10 01:25:50;;;;;;;4.93;3.35;;;21.80;63.80;;;;;;5004608;28;20446;-62
2023/07/10 01:28:19;;;;;;;8.10;3.65;;;21.70;64.10;;;;;;5008099;28;20033;-63
2023/07/10 01:30:46;;;;;;;4.47;3.00;;;21.70;64.10;;;;;;5003760;28;20026;-62
2023/07/10 01:33:43;;;;;;;5.13;3.65;;;21.70;64.00;;;;;;5007064;28;20030;-64
2023/07/10 01:36:12;;;;;;;4.88;3.67;;;21.60;64.50;;;;;;5004997;28;20034;-63
2023/07/10 01:38:43;;;;;;;7.65;3.72;;;21.60;64.00;;;;;;5006849;28;20049;-63
2023/07/10 01:41:29;;;;;;;4.97;3.63;;;21.60;63.90;;;;;;5003764;28;20093;-63
2023/07/10 01:43:55;;;;;;;5.57;3.42;;;21.60;64.60;;;;;;5002419;28;20038;-63
2023/07/10 01:46:24;;;;;;;4.38;3.25;;;21.60;64.10;;;;;;5005799;28;20093;-63
2023/07/10 01:48:53;;;;;;;7.03;3.40;;;21.60;64.30;;;;;;5004847;28;20034;-64
2023/07/10 01:51:21;;;;;;;6.82;4.13;;;21.60;64.50;;;;;;5004535;28;20103;-63
2023/07/10 01:53:46;;;;;;;5.25;3.90;;;21.60;64.60;;;;;;5005649;28;20080;-65
2023/07/10 01:56:14;;;;;;;4.65;3.80;;;21.50;64.60;;;;;;5005907;28;20521;-64
2023/07/10 01:58:40;;;;;;;5.65;3.58;;;21.50;64.70;;;;;;5006848;28;20042;-63
2023/07/10 02:01:05;;;;;;;6.68;4.05;;;21.50;64.70;;;;;;5005328;28;20124;-63
2023/07/10 02:03:31;;;;;;;5.55;3.45;;;21.50;64.90;;;;;;5003272;28;20177;-62
2023/07/10 02:05:56;;;;;;;5.03;3.72;;;21.50;65.00;;;;;;5004484;28;20084;-64
2023/07/10 02:08:22;;;;;;;4.82;3.63;;;21.50;65.10;;;;;;5001267;28;20034;-63
2023/07/10 02:10:48;;;;;;;7.35;4.25;;;21.50;65.20;;;;;;5001231;28;20124;-63
2023/07/10 02:13:13;;;;;;;4.95;3.80;;;21.50;65.20;;;;;;5001889;28;20046;-63
2023/07/10 02:15:40;;;;;;;4.78;3.88;;;21.50;65.00;;;;;;5004251;28;20125;-62
2023/07/10 02:18:05;;;;;;;6.07;4.20;;;21.50;65.20;;;;;;5002262;28;20038;-62
2023/07/10 02:20:31;;;;;;;4.45;4.03;;;21.50;65.00;;;;;;5000691;28;20559;-63
2023/07/10 02:22:56;;;;;;;5.72;4.10;;;21.50;64.80;;;;;;5005279;28;20045;-62
2023/07/10 02:25:22;;;;;;;5.90;4.63;;;21.60;64.60;;;;;;5006003;28;20072;-64
2023/07/10 02:27:47;;;;;;;9.00;4.55;;;21.50;64.60;;;;;;5005586;28;20536;-62
2023/07/10 02:30:13;;;;;;;11.00;4.75;;;21.50;64.60;;;;;;5003070;28;20042;-62
2023/07/10 02:32:39;;;;;;;8.93;5.18;;;21.50;64.60;;;;;;5003304;28;20547;-63
2023/07/10 02:35:05;;;;;;;9.00;5.28;;;21.50;64.60;;;;;;5003138;28;20493;-63
2023/07/10 02:37:30;;;;;;;57.38;7.28;;;21.50;64.70;;;;;;5002919;28;20064;-64
2023/07/10 02:39:56;;;;;;;7.80;4.82;;;21.50;64.80;;;;;;5003590;28;20037;-63
2023/07/10 02:42:23;;;;;;;8.20;4.82;;;21.50;65.00;;;;;;5003276;28;20037;-63
2023/07/10 02:44:48;;;;;;;9.13;4.80;;;21.40;64.90;;;;;;5002672;28;20042;-62
2023/07/10 02:47:14;;;;;;;6.47;4.68;;;21.40;64.90;;;;;;5001473;28;20108;-63
2023/07/10 02:49:40;;;;;;;11.07;5.20;;;21.40;65.40;;;;;;5001390;28;21505;-62
2023/07/10 02:52:06;;;;;;;8.88;4.63;;;21.50;65.30;;;;;;5002930;28;20681;-63
2023/07/10 02:54:31;;;;;;;7.15;4.95;;;21.50;65.50;;;;;;5001351;28;20065;-61
2023/07/10 02:56:57;;;;;;;12.57;4.97;;;21.40;65.30;;;;;;5002960;28;20045;-63
2023/07/10 02:59:26;;;;;;;6.68;4.72;;;21.40;65.30;;;;;;5003817;28;20128;-63
2023/07/10 03:01:52;;;;;;;7.72;4.82;;;21.40;65.70;;;;;;5000945;28;20041;-63
2023/07/10 03:04:18;;;;;;;12.10;5.05;;;21.40;65.80;;;;;;5003349;28;20541;-64
2023/07/10 03:06:47;;;;;;;7.32;5.13;;;21.40;66.00;;;;;;5002890;28;20276;-63
2023/07/10 03:09:12;;;;;;;7.25;4.97;;;21.40;66.30;;;;;;5003674;28;20038;-63
2023/07/10 03:11:38;;;;;;;9.48;4.80;;;21.40;66.10;;;;;;4997865;28;20026;-62
2023/07/10 03:14:03;;;;;;;6.93;4.65;;;21.50;66.10;;;;;;5003276;28;20030;-63
2023/07/10 03:16:29;;;;;;;6.32;4.15;;;21.40;66.10;;;;;;4998962;28;20034;-63
2023/07/10 03:18:54;;;;;;;7.55;3.90;;;21.40;65.90;;;;;;5001778;28;20107;-64
2023/07/10 03:21:20;;;;;;;7.85;4.50;;;21.40;66.00;;;;;;5000173;28;20666;-63
2023/07/10 03:23:49;;;;;;;7.38;4.30;;;21.30;66.00;;;;;;5002140;28;20042;-63
2023/07/10 03:26:14;;;;;;;5.57;4.10;;;21.30;66.20;;;;;;5000955;28;20033;-62
2023/07/10 03:28:40;;;;;;;7.72;4.60;;;21.40;66.10;;;;;;5003549;28;20034;-62
2023/07/10 03:31:06;;;;;;;10.93;4.20;;;21.30;66.10;;;;;;5003786;28;20030;-65
2023/07/10 03:33:32;;;;;;;5.60;3.92;;;21.30;66.10;;;;;;5002409;28;20033;-63
2023/07/10 03:35:59;;;;;;;6.13;4.10;;;21.30;66.30;;;;;;5001533;28;20166;-63
2023/07/10 03:38:25;;;;;;;5.32;4.30;;;21.30;66.40;;;;;;5005219;28;20038;-62
2023/07/10 03:40:56;;;;;;;8.30;4.28;;;21.30;66.50;;;;;;5000334;28;20378;-63
2023/07/10 03:43:22;;;;;;;7.13;4.57;;;21.30;66.90;;;;;;5000698;28;20100;-62
2023/07/10 03:45:47;;;;;;;7.15;4.43;;;21.40;66.90;;;;;;4999373;28;20447;-63
2023/07/10 03:48:14;;;;;;;7.28;4.45;;;21.40;67.10;;;;;;5002184;28;20042;-64
2023/07/10 03:50:39;;;;;;;6.78;4.43;;;21.40;67.20;;;;;;5001123;28;20109;-64
2023/07/10 03:53:05;;;;;;;7.32;4.57;;;21.50;67.30;;;;;;5003132;28;20567;-63
2023/07/10 03:55:31;;;;;;;6.55;4.10;;;21.50;67.20;;;;;;5003383;28;20076;-63
2023/07/10 03:57:56;;;;;;;6.90;4.47;;;21.60;67.30;;;;;;5004149;28;20095;-62
2023/07/10 04:00:22;;;;;;;7.18;4.55;;;21.60;66.90;;;;;;5002362;28;20034;-62
2023/07/10 04:02:47;;;;;;;6.28;3.97;;;21.60;66.70;;;;;;5004093;28;20509;-62
2023/07/10 04:05:13;;;;;;;5.90;3.90;;;21.60;66.70;;;;;;5001454;28;20030;-64
2023/07/10 04:07:38;;;;;;;6.22;4.10;;;21.60;66.70;;;;;;4998675;28;20046;-63
2023/07/10 04:10:04;;;;;;;4.78;4.20;;;21.60;66.70;;;;;;4998348;28;20532;-63
2023/07/10 04:12:30;;;;;;;6.82;4.43;;;21.60;66.80;;;;;;4998920;28;20087;-63
2023/07/10 04:14:56;;;;;;;4.82;4.32;;;21.70;66.90;;;;;;4999068;28;20034;-62
2023/07/10 04:17:21;;;;;;;5.40;3.92;;;21.60;66.90;;;;;;4999777;28;20072;-63
2023/07/10 04:19:47;;;;;;;5.60;4.00;;;21.70;67.00;;;;;;5000780;28;20049;-63
2023/07/10 04:22:12;;;;;;;8.10;3.95;;;21.70;67.10;;;;;;5002529;28;20125;-63
2023/07/10 04:24:38;;;;;;;9.23;4.13;;;21.70;67.00;;;;;;5002780;28;20066;-63
2023/07/10 04:27:04;;;;;;;8.80;4.50;;;21.80;67.10;;;;;;4999927;28;20042;-62
2023/07/10 04:29:29;;;;;;;7.65;4.15;;;21.80;67.30;;;;;;5001759;28;20102;-64
2023/07/10 04:31:55;;;;;;;5.28;4.32;;;21.90;67.40;;;;;;4999675;28;20621;-61
2023/07/10 04:34:21;;;;;;;7.05;4.30;;;21.90;67.40;;;;;;5000534;28;20042;-63
2023/07/10 04:36:46;;;;;;;7.00;4.15;;;22.00;67.40;;;;;;5002369;28;20493;-64
2023/07/10 04:39:12;;;;;;;5.10;4.00;;;22.00;67.30;;;;;;5001834;28;20036;-63
2023/07/10 04:41:38;;;;;;;6.70;3.72;;;22.00;67.00;;;;;;5002414;28;20049;-63
2023/07/10 04:44:04;;;;;;;6.93;3.60;;;22.10;66.60;;;;;;4995465;28;20042;-64
2023/07/10 04:46:30;;;;;;;9.13;3.60;;;22.10;65.70;;;;;;4996315;28;20038;-63
2023/07/10 04:48:56;;;;;;;4.90;3.42;;;22.10;65.50;;;;;;4999861;28;20402;-65
2023/07/10 04:51:21;;;;;;;9.25;3.53;;;22.10;65.80;;;;;;4999406;28;20038;-63
2023/07/10 04:53:47;;;;;;;7.25;3.65;;;22.20;65.80;;;;;;5003891;28;20481;-63
2023/07/10 04:56:16;;;;;;;7.75;3.33;;;22.10;65.90;;;;;;5000381;28;20034;-64
2023/07/10 04:58:56;;;;;;;13.80;3.78;;;22.20;66.00;;;;;;5000472;28;20112;-64
2023/07/10 05:01:27;;;;;;;16.13;4.05;;;22.20;65.20;;;;;;4999051;28;20148;-62
2023/07/10 05:03:53;;;;;;;8.48;3.47;;;22.20;65.70;;;;;;5001912;28;20030;-63
2023/07/10 05:06:19;;;;;;;8.13;3.47;;;22.20;65.50;;;;;;5003753;28;20045;-63
2023/07/10 05:08:46;;;;;;;11.65;3.65;;;22.20;65.50;;;;;;4998438;28;20114;-64
2023/07/10 05:11:11;;;;;;;7.43;3.63;;;22.20;65.60;;;;;;4996764;28;20038;-62
2023/07/10 05:13:37;;;;;;;9.82;3.15;;;22.30;65.60;;;;;;5001237;28;20527;-64
2023/07/10 05:16:03;;;;;;;5.70;3.15;;;22.30;65.80;;;;;;5001188;28;20034;-63
2023/07/10 05:18:29;;;;;;;6.35;3.40;;;22.30;65.50;;;;;;5002251;28;20568;-64
2023/07/10 05:20:57;;;;;;;10.50;3.85;;;22.40;65.50;;;;;;5006600;28;20037;-63
2023/07/10 05:23:23;;;;;;;7.35;3.55;;;22.40;65.20;;;;;;5007661;28;20034;-63
2023/07/10 05:26:08;;;;;;;11.05;4.00;;;22.40;65.60;;;;;;5006907;28;20040;-63
2023/07/10 05:28:34;;;;;;;;;;;22.50;66.30;;;;;;5008079;28;20057;-63
2023/07/10 05:31:01;;;;;;;8.02;3.25;;;22.50;65.20;;;;;;5007048;28;19913;-63
2023/07/10 05:33:28;;;;;;;11.85;3.70;;;22.50;65.30;;;;;;5006554;28;20409;-63
2023/07/10 05:35:56;;;;;;;5.63;3.60;;;22.60;65.70;;;;;;5007414;28;20047;-63
2023/07/10 05:38:23;;;;;;;7.22;3.42;;;22.60;65.90;;;;;;5007812;28;20049;-64
2023/07/10 05:40:49;;;;;;;10.23;3.50;;;22.60;65.60;;;;;;5004739;28;20038;-63
2023/07/10 05:43:15;;;;;;;6.03;3.35;;;22.60;65.40;;;;;;5006061;28;20033;-63
2023/07/10 05:45:41;;;;;;;8.10;3.35;;;22.60;65.30;;;;;;5006110;28;20068;-62
2023/07/10 05:48:07;;;;;;;17.02;4.28;;;22.60;64.80;;;;;;5005805;28;20128;-63
2023/07/10 05:50:33;;;;;;;22.08;4.28;;;22.70;64.50;;;;;;5005263;28;20041;-63
2023/07/10 05:52:59;;;;;;;24.40;4.43;;;22.70;64.50;;;;;;5006025;28;20038;-63
2023/07/10 05:55:24;;;;;;;13.38;4.03;;;22.70;64.50;;;;;;5006621;28;20041;-62
2023/07/10 05:57:50;;;;;;;11.85;4.00;;;22.70;64.60;;;;;;5005835;28;20383;-63
2023/07/10 06:00:16;;;;;;;13.40;3.95;;;22.60;64.50;;;;;;5003884;28;20060;-64
2023/07/10 06:02:42;;;;;;;12.50;4.15;;;22.80;65.20;;;;;;5005665;28;20038;-63
2023/07/10 06:05:08;;;;;;;9.15;4.00;;;22.70;67.10;;;;;;5005951;28;20037;-62
2023/07/10 06:07:34;;;;;;;9.05;4.20;;;22.80;66.70;;;;;;5005863;28;20525;-62
2023/07/10 06:09:59;;;;;;;13.10;4.40;;;22.80;66.60;;;;;;5005921;28;20077;-63
2023/07/10 06:12:25;;;;;;;11.20;3.85;;;22.70;67.10;;;;;;5006531;28;20514;-62
2023/07/10 06:14:50;;;;;;;10.73;4.30;;;22.70;68.30;;;;;;5003707;28;20408;-61
2023/07/10 06:17:16;;;;;;;10.68;3.70;;;22.70;68.80;;;;;;5006817;28;20402;-60
2023/07/10 06:19:42;;;;;;;12.18;4.18;;;22.70;69.40;;;;;;5005747;28;20045;-62
2023/07/10 06:22:11;;;;;;;10.63;4.07;;;22.70;70.00;;;;;;5004364;28;20130;-63
2023/07/10 06:24:36;;;;;;;9.38;4.25;;;22.70;70.90;;;;;;5005101;28;20100;-61
2023/07/10 06:27:02;;;;;;;6.60;3.80;;;22.70;71.30;;;;;;5006650;28;20045;-61
2023/07/10 06:29:28;;;;;;;8.00;3.90;;;22.60;71.30;;;;;;5005808;28;20081;-62
2023/07/10 06:31:54;;;;;;;7.95;3.85;;;22.60;71.30;;;;;;5005756;28;20513;-60
2023/07/10 06:34:20;;;;;;;8.25;4.50;;;22.60;71.60;;;;;;5004742;28;20061;-62
2023/07/10 06:36:45;;;;;;;7.50;4.18;;;22.60;72.10;;;;;;5005972;28;20072;-61
2023/07/10 06:39:11;;;;;;;6.85;4.15;;;22.60;72.30;;;;;;5004908;28;20064;-60
2023/07/10 06:41:36;;;;;;;10.95;4.30;;;22.50;72.60;;;;;;5005339;28;20049;-61
2023/07/10 06:44:02;;;;;;;7.85;3.72;;;22.60;72.80;;;;;;5005677;28;20509;-61
2023/07/10 06:46:28;;;;;;;7.97;3.85;;;22.50;73.00;;;;;;5003428;28;20048;-62
2023/07/10 06:48:53;;;;;;;13.73;4.50;;;22.50;73.70;;;;;;5005383;28;20076;-62
2023/07/10 06:51:19;;;;;;;8.27;4.50;;;22.50;74.10;;;;;;5005192;28;20104;-62
2023/07/10 06:53:44;;;;;;;7.93;4.07;;;22.60;73.70;;;;;;5006564;28;20022;-62
2023/07/10 06:56:10;;;;;;;8.73;4.70;;;22.50;73.50;;;;;;5002939;28;20077;-61
2023/07/10 06:58:35;;;;;;;9.93;4.80;;;22.50;73.30;;;;;;5005004;28;20033;-60
2023/07/10 07:01:02;;;;;;;7.80;3.85;;;22.40;73.70;;;;;;5004044;28;20053;-60
2023/07/10 07:03:28;;;;;;;13.07;4.65;;;22.50;74.50;;;;;;5006085;28;20505;-62
2023/07/10 07:05:53;;;;;;;5.82;4.35;;;22.40;74.80;;;;;;5004757;28;20033;-61
2023/07/10 07:08:21;;;;;;;7.68;4.28;;;22.40;74.70;;;;;;5006077;28;20045;-63
2023/07/10 07:10:48;;;;;;;8.02;3.95;;;22.40;74.90;;;;;;5003117;28;20520;-64
2023/07/10 07:13:14;;;;;;;5.78;4.22;;;22.40;75.00;;;;;;5003594;28;20034;-63
2023/07/10 07:15:39;;;;;;;5.95;4.55;;;22.50;75.30;;;;;;5002524;28;20061;-63
2023/07/10 07:18:05;;;;;;;10.90;4.10;;;22.50;74.90;;;;;;5005275;28;20061;-62
2023/07/10 07:20:32;;;;;;;6.03;4.43;;;22.50;75.00;;;;;;5004099;28;20038;-60
2023/07/10 07:22:58;;;;;;;6.32;3.88;;;22.40;75.70;;;;;;5004820;28;20128;-62
2023/07/10 07:25:24;;;;;;;7.38;4.18;;;22.40;75.80;;;;;;5005698;28;20038;-63
2023/07/10 07:27:49;;;;;;;5.90;3.95;;;22.40;76.00;;;;;;5004925;28;20029;-61
2023/07/10 07:30:15;;;;;;;10.07;4.82;;;22.30;75.80;;;;;;5002381;28;20044;-63
2023/07/10 07:32:40;;;;;;;4.78;4.13;;;22.30;75.90;;;;;;5002732;28;20496;-62
2023/07/10 07:35:06;;;;;;;5.57;3.70;;;22.30;76.00;;;;;;5004098;28;20038;-63
2023/07/10 07:37:32;;;;;;;6.05;3.83;;;22.30;76.30;;;;;;5004825;28;20130;-63
2023/07/10 07:40:00;;;;;;;5.78;3.90;;;22.30;76.60;;;;;;5003844;28;20502;-62
2023/07/10 07:42:26;;;;;;;5.53;4.25;;;22.30;76.50;;;;;;5004687;28;20497;-62
2023/07/10 07:44:52;;;;;;;6.90;4.25;;;22.20;76.70;;;;;;5004060;28;20517;-63
2023/07/10 07:47:17;;;;;;;5.00;4.20;;;22.20;76.80;;;;;;5003932;28;20053;-64
2023/07/10 07:49:43;;;;;;;8.90;4.35;;;22.20;76.80;;;;;;5003813;28;20113;-62
2023/07/10 07:52:08;;;;;;;8.95;4.70;;;22.20;76.80;;;;;;5004838;28;20088;-63
2023/07/10 07:54:34;;;;;;;6.80;4.80;;;22.20;77.10;;;;;;5003168;28;20040;-62
2023/07/10 07:57:00;;;;;;;6.45;4.47;;;22.10;77.10;;;;;;5004175;28;20095;-62
2023/07/10 07:59:25;;;;;;;7.70;4.28;;;22.10;77.20;;;;;;5003377;28;20041;-63
2023/07/10 08:01:51;;;;;;;6.50;4.40;;;22.10;77.50;;;;;;5002917;28;20037;-62
2023/07/10 08:04:18;;;;;;;8.70;4.88;;;22.10;77.90;;;;;;5005301;28;20029;-63
2023/07/10 08:06:46;;;;;;;8.85;5.00;;;22.10;78.40;;;;;;5002116;28;20045;-63
2023/07/10 08:09:12;;;;;;;7.78;4.65;;;22.20;78.80;;;;;;5004009;28;20030;-60
2023/07/10 08:11:37;;;;;;;6.38;5.03;;;22.10;79.10;;;;;;5000321;28;20049;-62
2023/07/10 08:14:03;;;;;;;8.45;5.05;;;22.10;79.70;;;;;;5003687;28;20586;-62
2023/07/10 08:16:28;;;;;;;7.85;4.65;;;22.10;80.30;;;;;;5004390;28;20034;-63
2023/07/10 08:18:54;;;;;;;4.82;4.38;;;22.10;80.30;;;;;;5003828;28;20030;-61
2023/07/10 08:21:20;;;;;;;8.85;4.80;;;22.10;80.80;;;;;;5003526;28;20506;-60
2023/07/10 08:23:45;;;;;;;8.10;4.25;;;22.10;80.70;;;;;;5004653;28;20494;-62
2023/07/10 08:26:11;;;;;;;7.28;4.88;;;22.10;81.00;;;;;;5005554;28;20099;-62
2023/07/10 08:28:36;;;;;;;7.43;4.72;;;22.20;81.50;;;;;;5005188;28;20042;-62
2023/07/10 08:31:02;;;;;;;6.40;4.95;;;22.30;82.20;;;;;;5004552;28;20026;-62
2023/07/10 08:33:28;;;;;;;6.55;4.40;;;22.40;82.20;;;;;;5005031;28;20465;-63
2023/07/10 08:35:54;;;;;;;6.70;4.50;;;22.50;81.50;;;;;;5003995;28;20080;-62
2023/07/10 08:38:20;;;;;;;6.72;4.40;;;22.70;81.40;;;;;;5005032;28;20060;-62
2023/07/10 08:40:50;;;;;;;6.53;4.43;;;22.80;81.30;;;;;;5003177;28;20125;-61
2023/07/10 08:43:33;;;;;;;6.00;4.70;;;22.90;81.30;;;;;;5004090;28;20062;-61
2023/07/10 08:46:10;;;;;;;8.35;4.80;;;23.10;82.80;;;;;;5003525;28;20038;-62
2023/07/10 08:48:52;;;;;;;4.97;4.20;;;23.40;82.80;;;;;;5005139;28;20042;-62
2023/07/10 08:51:21;;;;;;;5.63;4.10;;;23.50;80.30;;;;;;5004375;28;20041;-62
2023/07/10 08:54:01;;;;;;;5.10;3.95;;;23.70;79.30;;;;;;5006657;28;20037;-63
2023/07/10 08:56:53;;;;;;;6.47;3.70;;;23.80;78.80;;;;;;5006640;28;20056;-62
2023/07/10 08:59:27;;;;;;;5.85;4.20;;;24.00;79.40;;;;;;5006397;28;20556;-61
2023/07/10 09:01:54;;;;;;;6.45;3.97;;;24.20;78.00;;;;;;5008858;28;20108;-63
2023/07/10 09:04:21;;;;;;;7.53;4.18;;;24.40;78.00;;;;;;5007854;28;20038;-64
2023/07/10 09:06:56;;;;;;;5.95;4.28;;;24.60;78.00;;;;;;5008338;28;22084;-62
2023/07/10 09:09:41;;;;;;;5.30;3.95;;;24.70;77.70;;;;;;5007473;28;20038;-62
2023/07/10 09:12:13;;;;;;;5.20;4.18;;;25.00;76.40;;;;;;5006969;28;20038;-63
2023/07/10 09:14:54;;;;;;;5.25;3.90;;;25.10;76.20;;;;;;5007036;28;20149;-63
2023/07/10 09:17:51;;;;;;;6.32;3.88;;;25.30;76.00;;;;;;5008748;28;20065;-62
2023/07/10 09:20:19;;;;;;;6.75;3.90;;;25.50;75.90;;;;;;5004523;28;20524;-63
2023/07/10 09:22:53;;;;;;;5.22;3.67;;;25.70;75.60;;;;;;5007988;28;20497;-62
2023/07/10 09:25:21;;;;;;;4.32;3.90;;;25.90;74.30;;;;;;5009100;28;20046;-62
2023/07/10 09:27:47;;;;;;;7.57;3.83;;;26.10;74.40;;;;;;5008519;28;20145;-65
2023/07/10 09:30:40;;;;;;;4.75;3.70;;;26.20;73.60;;;;;;5006305;28;20042;-63
2023/07/10 09:33:11;;;;;;;3.42;3.00;;;26.40;73.50;;;;;;5007775;28;20493;-65
2023/07/10 09:35:41;;;;;;;4.40;3.67;;;26.60;72.20;;;;;;5006499;28;20030;-63
2023/07/10 09:38:11;;;;;;;4.30;3.30;;;26.70;69.50;;;;;;5007673;28;20517;-64
2023/07/10 09:40:36;;;;;;;5.22;3.38;;;26.90;68.70;;;;;;5005399;28;20125;-64
2023/07/10 09:43:04;;;;;;;4.07;3.08;;;26.90;68.00;;;;;;5007611;28;20140;-64
2023/07/10 09:45:35;;;;;;;4.50;3.40;;;27.00;68.00;;;;;;5006103;28;20161;-63
2023/07/10 09:48:01;;;;;;;5.60;3.17;;;27.10;68.80;;;;;;5007225;28;20512;-64
2023/07/10 09:50:26;;;;;;;4.53;3.75;;;27.20;68.40;;;;;;5005494;28;20088;-62
2023/07/10 09:52:55;;;;;;;9.10;4.55;;;27.40;68.80;;;;;;5006063;28;20042;-62
2023/07/10 09:55:22;;;;;;;5.15;4.07;;;27.50;69.20;;;;;;5007541;28;20065;-63
2023/07/10 09:57:50;;;;;;;9.80;4.47;;;27.70;69.70;;;;;;5006572;28;20037;-63
2023/07/10 10:00:18;;;;;;;8.40;3.95;;;27.80;69.30;;;;;;5004846;28;20038;-63
2023/07/10 10:03:02;;;;;;;5.60;3.67;;;28.00;69.20;;;;;;5006653;28;20044;-64
2023/07/10 10:05:28;;;;;;;5.82;3.70;;;28.10;67.70;;;;;;5004174;28;20612;-63
2023/07/10 10:08:02;;;;;;;8.07;3.80;;;28.20;67.60;;;;;;5006302;28;20116;-64
2023/07/10 10:10:33;;;;;;;3.40;3.10;;;28.40;67.30;;;;;;5003644;28;20034;-62
2023/07/10 10:13:13;;;;;;;5.85;2.97;;;28.50;65.60;;;;;;5007541;28;20081;-64
2023/07/10 10:15:41;;;;;;;3.30;3.00;;;28.60;62.20;;;;;;5005464;28;20104;-64
2023/07/10 10:18:35;;;;;;;5.90;3.22;;;28.70;60.60;;;;;;5005506;28;20042;-63
2023/07/10 10:21:02;;;;;;;3.53;2.67;;;28.90;58.80;;;;;;5005085;28;20036;-63
2023/07/10 10:23:33;;;;;;;4.00;2.92;;;29.00;59.50;;;;;;5006085;28;20068;-64
2023/07/10 10:26:33;;;;;;;4.18;2.65;;;29.00;59.90;;;;;;5007111;28;20029;-64
2023/07/10 10:29:19;;;;;;;4.63;2.85;;;29.10;59.40;;;;;;5006560;28;20041;-63
2023/07/10 10:31:54;;;;;;;4.15;2.80;;;29.30;59.10;;;;;;5006008;28;20571;-64
2023/07/10 10:34:38;;;;;;;3.08;2.78;;;29.40;59.10;;;;;;5007618;28;20041;-64
2023/07/10 10:37:26;;;;;;;3.13;2.80;;;29.50;59.30;;;;;;5006140;28;20085;-63
2023/07/10 10:40:01;;;;;;;4.45;2.88;;;29.60;58.20;;;;;;5004591;28;20330;-64
2023/07/10 10:42:46;;;;;;;2.92;2.72;;;29.60;58.10;;;;;;5005782;28;20041;-63
2023/07/10 10:45:18;;;;;;;4.88;3.10;;;29.60;58.20;;;;;;5007793;28;20037;-64
2023/07/10 10:47:52;;;;;;;3.60;2.80;;;29.60;58.00;;;;;;5004424;28;20187;-65
2023/07/10 10:50:24;;;;;;;;;;;29.60;56.10;;;;;;5007177;28;20045;-64
2023/07/10 10:53:18;;;;;;;3.67;2.70;;;29.70;56.60;;;;;;5005440;28;20288;-64
2023/07/10 10:56:12;;;;;;;5.50;2.78;;;29.70;55.40;;;;;;5005060;28;20031;-63
2023/07/10 10:58:57;;;;;;;3.00;2.42;;;29.70;55.70;;;;;;5006104;28;20037;-64
2023/07/10 11:01:36;;;;;;;3.50;2.55;;;29.80;56.30;;;;;;5004467;28;20049;-65
2023/07/10 11:04:37;;;;;;;4.43;2.58;;;29.90;56.20;;;;;;5005603;28;20041;-64
2023/07/10 11:07:10;;;;;;;3.03;2.58;;;30.00;55.60;;;;;;5005344;28;20520;-63
2023/07/10 11:09:51;;;;;;;3.72;2.38;;;30.10;55.10;;;;;;5004819;28;20087;-64
2023/07/10 11:12:21;;;;;;;6.45;2.42;;;30.10;54.80;;;;;;5003654;28;20030;-64
2023/07/10 11:14:58;;;;;;;3.75;2.80;;;30.20;55.10;;;;;;5003474;28;20053;-64
2023/07/10 11:17:24;;;;;;;3.65;2.58;;;30.20;54.80;;;;;;5005039;28;20084;-64
2023/07/10 11:19:50;;;;;;;3.15;2.38;;;30.20;55.00;;;;;;5005305;28;20060;-64
2023/07/10 11:22:31;;;;;;;3.53;2.47;;;30.30;54.90;;;;;;5006242;28;20442;-65
2023/07/10 11:24:58;;;;;;;3.13;2.50;;;30.40;53.70;;;;;;5005317;28;20030;-64
2023/07/10 11:27:31;;;;;;;2.72;2.30;;;30.40;54.10;;;;;;5005157;28;20286;-64
2023/07/10 11:29:58;;;;;;;4.15;2.35;;;30.40;53.40;;;;;;5003816;28;20041;-63
2023/07/10 11:32:27;;;;;;;3.75;2.60;;;30.40;53.70;;;;;;5005780;28;20078;-64
2023/07/10 11:34:56;;;;;;;4.18;2.40;;;30.50;53.80;;;;;;5004620;28;20493;-65
2023/07/10 11:37:42;;;;;;;4.07;2.30;;;30.50;54.10;;;;;;5006326;28;20108;-64
2023/07/10 11:40:26;;;;;;;4.97;2.42;;;30.60;52.70;;;;;;5005147;28;20483;-65
2023/07/10 11:42:51;;;;;;;4.30;2.80;;;30.60;54.00;;;;;;5003907;28;20040;-64
2023/07/10 11:45:17;;;;;;;3.90;2.67;;;30.60;53.70;;;;;;5005028;28;20129;-64
2023/07/10 11:47:44;;;;;;;3.03;2.60;;;30.60;53.60;;;;;;5004073;28;20041;-63
2023/07/10 11:50:35;;;;;;;2.83;2.55;;;30.70;53.80;;;;;;5004128;28;20100;-63
2023/07/10 11:53:05;;;;;;;4.53;2.47;;;30.70;53.50;;;;;;5003689;28;20030;-64
2023/07/10 11:55:31;;;;;;;4.47;2.38;;;30.80;54.00;;;;;;5004463;28;20040;-63
2023/07/10 11:58:22;;;;;;;3.67;2.92;;;30.90;53.60;;;;;;5004935;28;20033;-64
2023/07/10 12:00:48;;;;;;;3.97;2.83;;;30.90;53.70;;;;;;5003955;28;20037;-65
2023/07/10 12:03:13;;;;;;;3.63;2.45;;;31.00;53.60;;;;;;5004908;28;20456;-64
2023/07/10 12:05:39;;;;;;;4.20;2.88;;;31.10;53.60;;;;;;5004032;28;20491;-64
2023/07/10 12:08:08;;;;;;;4.95;3.00;;;31.10;53.30;;;;;;5004656;28;20034;-63
2023/07/10 12:10:45;;;;;;;2.95;2.67;;;31.10;53.20;;;;;;5000346;28;20049;-64
2023/07/10 12:13:16;;;;;;;3.10;2.58;;;31.20;53.10;;;;;;5005855;28;20041;-65
2023/07/10 12:15:42;;;;;;;3.95;2.88;;;31.30;52.80;;;;;;5003801;28;20172;-65
2023/07/10 12:18:08;;;;;;;4.55;2.80;;;31.30;52.70;;;;;;5004556;28;20030;-65
2023/07/10 12:20:35;;;;;;;5.03;3.08;;;31.40;53.00;;;;;;5002567;28;20073;-64
2023/07/10 12:23:06;;;;;;;4.13;3.17;;;31.50;52.60;;;;;;5004271;28;20049;-64
2023/07/10 12:25:32;;;;;;;3.63;3.05;;;31.50;52.20;;;;;;5005793;28;20096;-64
2023/07/10 12:28:02;;;;;;;3.88;2.90;;;31.60;52.50;;;;;;5004387;28;20034;-63
2023/07/10 12:30:30;;;;;;;33.20;3.65;;;31.70;51.90;;;;;;5008572;28;20026;-65
2023/07/10 12:32:56;;;;;;;3.10;2.80;;;31.80;52.30;;;;;;5008155;28;20034;-64
2023/07/10 12:35:29;;;;;;;3.65;3.10;;;31.80;51.80;;;;;;5009113;28;20037;-64
2023/07/10 12:37:56;;;;;;;5.50;3.47;;;31.90;50.60;;;;;;5008695;28;20105;-64
2023/07/10 12:40:21;;;;;;;3.28;2.72;;;32.00;50.90;;;;;;5007439;28;20413;-64
2023/07/10 12:42:47;;;;;;;3.20;2.90;;;32.00;51.40;;;;;;5006432;28;20034;-64
2023/07/10 12:45:33;;;;;;;6.45;3.20;;;32.00;51.40;;;;;;5007617;28;20460;-64
2023/07/10 12:48:15;;;;;;;4.82;2.80;;;32.10;50.20;;;;;;5009425;28;20470;-63
2023/07/10 12:50:47;;;;;;;3.30;3.00;;;32.20;48.90;;;;;;5008486;28;20469;-65
2023/07/10 12:53:20;;;;;;;5.85;3.15;;;32.20;48.40;;;;;;5009712;28;20109;-65
2023/07/10 12:55:51;;;;;;;3.50;3.20;;;32.30;48.30;;;;;;5006805;28;20117;-64
2023/07/10 12:58:16;;;;;;;4.40;3.40;;;32.30;48.70;;;;;;5009609;28;20030;-64